Time;durP1;ratioP1;P1;durP2;ratioP2;P2;SDS_P1;SDS_P2;PMS_P1;PMS_P2;Temp;Humidity;BMP_temperature;BMP_pressure;BME280_temperature;BME280_humidity;BME280_pressure;Samples;Min_cycle;Max_cycle;Signal;HPM_P1;HPM_P2
2020/12/08 00:02:13;;;;;;;9.30;6.35;;;14.00;68.80;;;;;;5026486;28;20025;-76
2020/12/08 00:04:39;;;;;;;9.07;6.38;;;14.00;68.80;;;;;;5027735;28;20348;-74
2020/12/08 00:07:06;;;;;;;9.13;6.60;;;14.00;68.80;;;;;;5030295;28;20017;-73
2020/12/08 00:09:32;;;;;;;9.50;6.45;;;14.00;68.80;;;;;;5029672;28;20366;-76
2020/12/08 00:11:57;;;;;;;9.25;6.80;;;14.00;68.80;;;;;;5028884;28;20030;-74
2020/12/08 00:14:23;;;;;;;9.05;6.68;;;14.00;68.80;;;;;;5029981;28;20025;-79
2020/12/08 00:16:49;;;;;;;8.18;6.32;;;14.10;68.80;;;;;;5029674;28;20033;-75
2020/12/08 00:19:14;;;;;;;9.05;6.45;;;14.10;68.80;;;;;;5030835;28;20056;-73
2020/12/08 00:21:42;;;;;;;9.52;6.82;;;14.00;68.80;;;;;;5030956;28;20119;-72
2020/12/08 00:24:07;;;;;;;8.07;6.68;;;14.00;68.80;;;;;;5006087;28;20363;-76
2020/12/08 00:26:33;;;;;;;10.60;6.72;;;14.10;68.80;;;;;;5024657;28;20028;-73
2020/12/08 00:28:59;;;;;;;9.68;6.57;;;14.00;68.80;;;;;;5009539;28;20484;-74
2020/12/08 00:31:25;;;;;;;7.47;5.78;;;14.00;68.90;;;;;;5013569;28;20037;-74
2020/12/08 00:33:52;;;;;;;7.25;5.93;;;14.00;68.90;;;;;;5025740;28;20110;-73
2020/12/08 00:36:17;;;;;;;8.43;6.38;;;14.00;68.80;;;;;;5030486;28;20017;-76
2020/12/08 00:38:43;;;;;;;9.02;6.70;;;14.00;68.90;;;;;;5028840;28;20096;-73
2020/12/08 00:41:13;;;;;;;8.25;6.28;;;14.10;68.80;;;;;;5027673;28;20120;-75
2020/12/08 00:43:39;;;;;;;9.20;6.88;;;14.00;68.80;;;;;;5027362;28;20096;-73
2020/12/08 00:46:04;;;;;;;8.18;6.00;;;14.00;68.80;;;;;;5029980;28;20101;-73
2020/12/08 00:48:31;;;;;;;7.93;6.38;;;14.00;68.80;;;;;;5029205;28;20104;-77
2020/12/08 00:50:57;;;;;;;8.70;6.68;;;14.00;68.80;;;;;;5032592;28;20027;-73
2020/12/08 00:53:22;;;;;;;8.30;6.75;;;14.00;68.80;;;;;;5036281;28;20017;-73
2020/12/08 00:55:48;;;;;;;9.88;6.65;;;14.00;68.80;;;;;;5028972;28;20025;-72
2020/12/08 00:58:14;;;;;;;8.95;6.60;;;14.00;68.80;;;;;;5028911;28;20528;-73
2020/12/08 01:00:39;;;;;;;8.13;6.50;;;14.10;68.80;;;;;;5027339;28;20187;-75
2020/12/08 01:03:05;;;;;;;9.10;7.05;;;14.10;68.80;;;;;;5015973;28;20426;-72
2020/12/08 01:05:31;;;;;;;9.40;6.63;;;14.00;68.80;;;;;;5027775;28;20025;-75
2020/12/08 01:07:56;;;;;;;8.15;6.43;;;14.00;68.80;;;;;;5028338;28;20037;-73
2020/12/08 01:10:22;;;;;;;7.60;6.10;;;14.00;68.80;;;;;;5010577;28;20417;-72
2020/12/08 01:12:48;;;;;;;8.88;6.25;;;14.00;68.80;;;;;;5028312;28;20026;-75
2020/12/08 01:15:13;;;;;;;8.30;6.95;;;14.10;68.80;;;;;;5007193;28;20026;-74
2020/12/08 01:17:39;;;;;;;8.20;6.20;;;14.00;68.80;;;;;;5006092;28;20060;-73
2020/12/08 01:20:05;;;;;;;9.70;6.78;;;14.00;68.80;;;;;;5021710;28;20022;-72
2020/12/08 01:22:30;;;;;;;7.15;5.57;;;14.00;68.80;;;;;;5032059;28;20029;-75
2020/12/08 01:24:56;;;;;;;7.93;6.47;;;14.00;68.80;;;;;;5027409;28;20035;-74
2020/12/08 01:27:22;;;;;;;7.78;5.82;;;14.10;68.80;;;;;;5011469;28;20352;-73
2020/12/08 01:29:47;;;;;;;9.10;6.53;;;14.10;68.90;;;;;;5029759;28;20102;-73
2020/12/08 01:32:13;;;;;;;9.45;6.95;;;14.00;68.90;;;;;;5022412;28;20021;-72
2020/12/08 01:34:38;;;;;;;8.27;5.90;;;14.00;68.80;;;;;;5022086;28;20037;-73
2020/12/08 01:37:04;;;;;;;8.30;6.70;;;14.00;68.80;;;;;;5028053;28;20038;-73
2020/12/08 01:39:30;;;;;;;7.90;6.35;;;14.00;68.90;;;;;;5010926;28;20021;-73
2020/12/08 01:41:56;;;;;;;8.80;6.47;;;14.00;68.90;;;;;;5027052;28;20411;-74
2020/12/08 01:44:23;;;;;;;9.95;6.63;;;14.00;68.90;;;;;;5011343;28;20140;-76
2020/12/08 01:46:49;;;;;;;9.40;6.72;;;14.00;68.90;;;;;;5026337;28;20455;-72
2020/12/08 01:49:15;;;;;;;9.55;6.65;;;14.00;68.80;;;;;;5032463;28;20116;-75
2020/12/08 01:51:41;;;;;;;8.32;6.18;;;14.00;68.80;;;;;;5032821;28;20029;-73
2020/12/08 01:54:07;;;;;;;8.00;6.07;;;14.00;68.90;;;;;;5015427;28;20053;-73
2020/12/08 01:56:33;;;;;;;8.95;7.18;;;14.00;68.80;;;;;;5021606;28;20107;-73
2020/12/08 01:58:59;;;;;;;8.27;6.43;;;14.00;68.80;;;;;;5009864;28;20022;-75
2020/12/08 02:01:24;;;;;;;8.48;6.40;;;14.00;68.80;;;;;;5030400;28;20472;-72
2020/12/08 02:03:50;;;;;;;8.82;6.03;;;14.10;68.90;;;;;;5028894;28;20060;-73
2020/12/08 02:06:16;;;;;;;9.02;6.72;;;14.00;68.90;;;;;;5030306;28;20348;-73
2020/12/08 02:08:42;;;;;;;8.75;6.20;;;14.00;68.90;;;;;;5033591;28;20064;-74
2020/12/08 02:11:07;;;;;;;8.70;6.18;;;14.00;68.90;;;;;;5030178;28;20415;-72
2020/12/08 02:13:34;;;;;;;8.35;6.45;;;14.00;68.90;;;;;;5010305;28;20041;-73
2020/12/08 02:16:00;;;;;;;7.30;5.65;;;14.00;68.90;;;;;;5031371;28;20063;-73
2020/12/08 02:18:26;;;;;;;9.77;7.05;;;14.00;68.90;;;;;;5030116;28;20033;-73
2020/12/08 02:21:00;;;;;;;8.23;6.45;;;14.00;68.90;;;;;;5031488;28;20029;-72
2020/12/08 02:23:26;;;;;;;8.43;5.88;;;14.00;68.90;;;;;;5031605;28;20030;-74
2020/12/08 02:26:09;;;;;;;7.63;5.90;;;14.00;68.90;;;;;;5024128;28;20049;-74
2020/12/08 02:28:35;;;;;;;7.55;6.18;;;14.00;68.90;;;;;;5026927;28;20025;-74
2020/12/08 02:31:01;;;;;;;8.73;6.55;;;14.00;68.90;;;;;;5033565;28;20193;-74
2020/12/08 02:33:30;;;;;;;7.93;6.32;;;14.00;68.90;;;;;;5031714;28;20120;-73
2020/12/08 02:35:56;;;;;;;8.43;6.03;;;14.00;68.90;;;;;;5031751;28;20488;-72
2020/12/08 02:38:24;;;;;;;8.68;6.53;;;14.00;68.90;;;;;;5028179;28;20124;-75
2020/12/08 02:40:50;;;;;;;8.03;6.37;;;14.00;68.90;;;;;;5032059;28;20493;-73
2020/12/08 02:43:16;;;;;;;8.32;6.28;;;14.00;68.90;;;;;;5030422;28;20025;-72
2020/12/08 02:45:41;;;;;;;8.02;6.22;;;14.00;68.90;;;;;;5012466;28;20029;-74
2020/12/08 02:48:08;;;;;;;7.75;5.85;;;14.00;68.90;;;;;;5033561;28;20033;-73
2020/12/08 02:50:33;;;;;;;8.25;5.85;;;14.00;68.90;;;;;;5014114;28;20033;-74
2020/12/08 02:52:59;;;;;;;9.10;6.43;;;14.00;68.90;;;;;;5031884;28;20091;-73
2020/12/08 02:55:25;;;;;;;9.48;6.55;;;14.00;68.90;;;;;;5013828;28;20359;-73
2020/12/08 02:57:50;;;;;;;8.60;6.30;;;14.00;68.90;;;;;;5042538;28;20447;-74
2020/12/08 03:00:16;;;;;;;9.52;6.07;;;14.00;68.90;;;;;;5017662;28;20040;-73
2020/12/08 03:02:42;;;;;;;8.80;6.32;;;14.00;68.90;;;;;;5033068;28;20030;-72
2020/12/08 03:05:07;;;;;;;9.77;7.25;;;14.00;68.90;;;;;;5032040;28;20036;-74
2020/12/08 03:07:33;;;;;;;7.57;5.80;;;14.00;68.90;;;;;;5032136;28;20022;-73
2020/12/08 03:09:59;;;;;;;8.02;5.95;;;14.00;68.90;;;;;;5031628;28;20374;-75
2020/12/08 03:12:24;;;;;;;8.20;6.20;;;14.00;69.00;;;;;;5032330;28;20038;-74
2020/12/08 03:14:50;;;;;;;7.93;6.15;;;14.00;68.90;;;;;;5030330;28;20108;-74
2020/12/08 03:17:16;;;;;;;8.88;6.40;;;14.00;69.00;;;;;;5029184;28;20037;-73
2020/12/08 03:19:41;;;;;;;7.10;5.88;;;14.00;68.90;;;;;;5035995;28;20037;-80
2020/12/08 03:22:07;;;;;;;7.57;6.00;;;14.00;69.00;;;;;;5029412;28;20017;-74
2020/12/08 03:24:33;;;;;;;9.93;6.35;;;14.00;68.90;;;;;;5013467;28;20072;-75
2020/12/08 03:26:58;;;;;;;7.53;6.05;;;14.00;69.00;;;;;;5030277;28;20094;-74
2020/12/08 03:29:24;;;;;;;7.22;6.07;;;14.00;69.00;;;;;;5030487;28;20037;-73
2020/12/08 03:31:49;;;;;;;8.52;5.82;;;14.00;69.00;;;;;;5031751;28;20309;-73
2020/12/08 03:34:15;;;;;;;7.45;6.07;;;14.00;69.00;;;;;;5032859;28;20045;-76
2020/12/08 03:36:41;;;;;;;7.90;6.13;;;14.00;69.00;;;;;;4999140;28;20657;-73
2020/12/08 03:39:07;;;;;;;7.88;6.15;;;14.00;69.00;;;;;;5030510;28;20029;-74
2020/12/08 03:41:33;;;;;;;8.35;6.43;;;14.00;69.00;;;;;;5029673;28;20021;-74
2020/12/08 03:43:58;;;;;;;8.98;6.20;;;14.00;69.00;;;;;;5029971;28;20017;-75
2020/12/08 03:46:26;;;;;;;8.57;6.07;;;13.90;69.00;;;;;;5015836;28;20104;-74
2020/12/08 03:48:53;;;;;;;7.80;5.72;;;14.00;69.00;;;;;;5027417;28;20026;-73
2020/12/08 03:51:21;;;;;;;9.30;6.53;;;14.00;69.00;;;;;;5033586;28;20044;-75
2020/12/08 03:53:47;;;;;;;7.28;5.88;;;13.90;69.00;;;;;;5032074;28;20067;-73
2020/12/08 03:56:17;;;;;;;7.93;6.13;;;13.90;69.00;;;;;;5031691;28;20026;-76
2020/12/08 03:58:44;;;;;;;7.15;5.68;;;14.00;69.00;;;;;;5031999;28;20028;-73
2020/12/08 04:01:28;;;;;;;7.95;5.43;;;13.90;69.00;;;;;;5026904;28;20025;-74
2020/12/08 04:03:53;;;;;;;8.70;6.30;;;14.00;69.00;;;;;;5011969;28;20037;-74
2020/12/08 04:06:19;;;;;;;9.02;6.50;;;13.90;69.00;;;;;;5029165;28;20025;-75
2020/12/08 04:08:46;;;;;;;8.27;6.32;;;14.00;69.10;;;;;;5030308;28;20033;-73
2020/12/08 04:11:13;;;;;;;8.40;6.32;;;13.90;69.00;;;;;;5028649;28;20029;-76
2020/12/08 04:13:39;;;;;;;8.27;6.40;;;14.00;69.00;;;;;;5030447;28;20376;-73
2020/12/08 04:16:10;;;;;;;8.57;5.97;;;14.00;69.00;;;;;;5027686;28;20034;-76
2020/12/08 04:18:36;;;;;;;8.98;6.18;;;13.90;69.00;;;;;;5030922;28;20025;-73
2020/12/08 04:21:02;;;;;;;8.07;6.40;;;14.00;69.10;;;;;;5028749;28;20045;-73
2020/12/08 04:23:27;;;;;;;7.25;5.30;;;13.90;69.10;;;;;;5011117;28;20025;-75
2020/12/08 04:25:53;;;;;;;8.85;6.45;;;14.00;69.10;;;;;;5011203;28;20025;-74
2020/12/08 04:28:18;;;;;;;7.93;5.70;;;13.90;69.00;;;;;;5005128;28;20072;-73
2020/12/08 04:30:44;;;;;;;7.88;6.05;;;14.00;69.00;;;;;;5027288;28;20037;-79
2020/12/08 04:33:13;;;;;;;6.95;5.15;;;14.00;69.10;;;;;;5025713;28;20017;-74
2020/12/08 04:35:41;;;;;;;8.18;6.35;;;14.00;69.10;;;;;;5030061;28;20065;-73
2020/12/08 04:38:06;;;;;;;8.47;6.03;;;13.90;69.00;;;;;;5012253;28;20120;-73
2020/12/08 04:40:32;;;;;;;7.50;5.75;;;14.00;69.10;;;;;;5026982;28;20863;-75
2020/12/08 04:42:58;;;;;;;6.63;5.70;;;13.90;69.10;;;;;;5025652;28;20075;-73
2020/12/08 04:45:24;;;;;;;7.60;5.65;;;13.90;69.10;;;;;;5028728;28;20080;-76
2020/12/08 04:47:50;;;;;;;7.65;5.72;;;14.00;69.10;;;;;;5027148;28;20052;-74
2020/12/08 04:50:18;;;;;;;8.07;6.07;;;13.90;69.00;;;;;;5030277;28;20041;-74
2020/12/08 04:52:45;;;;;;;7.35;5.93;;;13.90;69.10;;;;;;5030121;28;20025;-74
2020/12/08 04:55:11;;;;;;;7.15;5.72;;;13.90;69.10;;;;;;5012003;28;20030;-73
2020/12/08 04:57:40;;;;;;;7.55;6.03;;;14.00;69.10;;;;;;5012399;28;20056;-74
2020/12/08 05:00:17;;;;;;;6.95;5.47;;;13.90;69.10;;;;;;5030495;28;20038;-74
2020/12/08 05:02:46;;;;;;;7.93;6.18;;;14.00;69.00;;;;;;5026189;28;20029;-74
2020/12/08 05:10:41;;;;;;;7.88;5.53;;;13.90;69.10;;;;;;5125083;22;20056;-81
2020/12/08 05:13:08;;;;;;;7.13;5.82;;;13.90;69.10;;;;;;5089618;28;20038;-74
2020/12/08 05:15:34;;;;;;;7.93;5.57;;;13.90;69.10;;;;;;5072983;28;20024;-73
2020/12/08 05:18:11;;;;;;;7.88;5.65;;;13.90;69.10;;;;;;5089836;28;20028;-73
2020/12/08 05:20:38;;;;;;;8.93;6.32;;;13.90;69.10;;;;;;5085744;28;20029;-75
2020/12/08 05:23:04;;;;;;;8.70;5.85;;;13.90;69.10;;;;;;5091673;28;20020;-73
2020/12/08 05:25:30;;;;;;;9.13;6.18;;;13.90;69.10;;;;;;5094448;28;20031;-73
2020/12/08 05:28:00;;;;;;;8.38;5.88;;;13.90;69.10;;;;;;5095797;28;20032;-73
2020/12/08 05:30:27;;;;;;;7.00;5.53;;;13.90;69.10;;;;;;5093740;28;20044;-74
2020/12/08 05:32:53;;;;;;;7.85;6.15;;;13.90;69.10;;;;;;5095273;28;20032;-73
2020/12/08 05:35:24;;;;;;;7.25;5.65;;;13.90;69.10;;;;;;5092715;28;20029;-73
2020/12/08 05:37:52;;;;;;;8.30;6.15;;;13.90;69.10;;;;;;5076567;28;20024;-73
2020/12/08 05:40:22;;;;;;;;;;;13.90;69.10;;;;;;5073165;28;20032;-73
2020/12/08 05:42:51;;;;;;;7.05;5.55;;;14.00;69.10;;;;;;5094366;28;20027;-73
2020/12/08 05:45:22;;;;;;;7.40;5.70;;;13.90;69.10;;;;;;5077049;28;20077;-73
2020/12/08 05:47:51;;;;;;;6.15;4.95;;;14.00;69.10;;;;;;5094729;28;20038;-73
2020/12/08 05:50:18;;;;;;;7.00;5.45;;;13.90;69.10;;;;;;5089786;28;20039;-73
2020/12/08 05:52:50;;;;;;;7.00;5.68;;;13.90;69.10;;;;;;5087485;28;20032;-73
2020/12/08 05:55:19;;;;;;;8.25;5.82;;;13.90;69.10;;;;;;5088527;28;20492;-73
2020/12/08 05:57:45;;;;;;;6.63;5.28;;;13.90;69.10;;;;;;5093224;28;20470;-73
2020/12/08 06:00:28;;;;;;;8.02;5.88;;;13.90;69.10;;;;;;5094418;28;20411;-75
2020/12/08 06:03:07;;;;;;;7.40;5.45;;;13.90;69.10;;;;;;5093976;28;20119;-73
2020/12/08 06:05:33;;;;;;;8.50;6.25;;;13.90;69.10;;;;;;5093885;28;20484;-73
2020/12/08 06:08:10;;;;;;;7.18;5.65;;;13.90;69.20;;;;;;5092759;28;20074;-79
2020/12/08 06:10:49;;;;;;;6.85;5.63;;;13.90;69.10;;;;;;5080552;28;20036;-73
2020/12/08 06:13:23;;;;;;;6.45;5.20;;;13.90;69.20;;;;;;5075270;28;20032;-75
2020/12/08 06:15:49;;;;;;;8.45;6.20;;;13.90;69.20;;;;;;5076695;28;20089;-74
2020/12/08 06:18:15;;;;;;;6.60;5.18;;;13.90;69.10;;;;;;5093429;28;20438;-74
2020/12/08 06:20:41;;;;;;;6.50;5.20;;;13.90;69.20;;;;;;5092863;28;20028;-74
2020/12/08 06:23:07;;;;;;;7.78;5.88;;;13.90;69.10;;;;;;5095365;28;20084;-73
2020/12/08 06:25:32;;;;;;;7.25;5.40;;;13.90;69.10;;;;;;5092828;28;20107;-73
2020/12/08 06:28:03;;;;;;;7.20;4.90;;;14.00;69.10;;;;;;5087982;28;20028;-73
2020/12/08 06:30:29;;;;;;;8.80;5.53;;;13.90;69.10;;;;;;5089598;28;20023;-73
2020/12/08 06:32:55;;;;;;;7.82;6.22;;;13.90;69.10;;;;;;5086338;28;20028;-72
2020/12/08 06:35:21;;;;;;;7.28;5.20;;;13.90;69.10;;;;;;5085351;28;20492;-73
2020/12/08 06:37:50;;;;;;;7.07;5.78;;;13.90;69.10;;;;;;5090662;28;20080;-73
2020/12/08 06:40:19;;;;;;;8.20;5.35;;;13.90;69.10;;;;;;5074932;28;20028;-72
2020/12/08 06:42:46;;;;;;;7.47;5.90;;;13.90;69.10;;;;;;5091643;28;20102;-72
2020/12/08 06:45:30;;;;;;;8.02;5.85;;;13.90;69.10;;;;;;5093552;28;20032;-72
2020/12/08 06:47:56;;;;;;;7.72;5.43;;;13.90;69.10;;;;;;5092307;28;20028;-74
2020/12/08 06:50:29;;;;;;;6.18;5.22;;;13.90;69.10;;;;;;5074948;28;20028;-73
2020/12/08 06:53:00;;;;;;;6.55;5.25;;;13.90;69.10;;;;;;5091280;28;20028;-72
2020/12/08 06:55:27;;;;;;;6.70;5.13;;;13.90;69.10;;;;;;5090967;28;20457;-72
2020/12/08 06:58:02;;;;;;;7.55;5.63;;;13.90;69.10;;;;;;5086515;28;20028;-72
2020/12/08 07:00:27;;;;;;;7.13;5.25;;;13.90;69.20;;;;;;5073168;28;20404;-73
2020/12/08 07:02:56;;;;;;;6.30;5.10;;;13.90;69.20;;;;;;5090745;28;20465;-73
2020/12/08 07:05:26;;;;;;;7.53;5.47;;;13.90;69.10;;;;;;5092857;28;20032;-73
2020/12/08 07:07:52;;;;;;;7.00;5.53;;;13.90;69.10;;;;;;5090539;28;20036;-74
2020/12/08 07:10:19;;;;;;;6.47;5.25;;;13.90;69.10;;;;;;5086061;28;20111;-76
2020/12/08 07:12:49;;;;;;;7.13;5.32;;;13.90;69.10;;;;;;5090960;28;20056;-73
2020/12/08 07:15:23;;;;;;;7.00;5.43;;;14.00;69.10;;;;;;5093520;28;20058;-72
2020/12/08 07:17:55;;;;;;;8.82;5.95;;;13.90;69.10;;;;;;5092085;28;20023;-73
2020/12/08 07:20:21;;;;;;;6.22;5.05;;;14.00;69.10;;;;;;5089338;28;20024;-72
2020/12/08 07:22:47;;;;;;;6.18;4.88;;;13.90;69.10;;;;;;5090098;28;20028;-72
2020/12/08 07:25:14;;;;;;;6.55;5.00;;;13.90;69.10;;;;;;5091636;28;20481;-73
2020/12/08 07:27:42;;;;;;;5.72;4.50;;;13.90;69.10;;;;;;5091975;28;20027;-73
2020/12/08 07:30:09;;;;;;;7.13;5.55;;;13.90;69.10;;;;;;5090881;28;20495;-73
2020/12/08 07:32:35;;;;;;;7.57;5.25;;;14.00;69.10;;;;;;5089453;28;20032;-72
2020/12/08 07:35:00;;;;;;;7.47;5.75;;;13.90;69.10;;;;;;5091870;28;20457;-72
2020/12/08 07:37:26;;;;;;;6.20;4.50;;;14.00;69.10;;;;;;5089570;28;20063;-73
2020/12/08 07:39:53;;;;;;;6.25;5.20;;;13.90;69.10;;;;;;5084130;28;20036;-74
2020/12/08 07:42:19;;;;;;;5.82;4.68;;;13.90;69.00;;;;;;5091000;28;20107;-73
2020/12/08 07:44:55;;;;;;;6.15;4.97;;;13.90;69.10;;;;;;5073609;28;20119;-73
2020/12/08 07:47:21;;;;;;;6.65;5.32;;;13.90;69.10;;;;;;5056766;28;20138;-73
2020/12/08 07:49:47;;;;;;;6.68;5.15;;;14.00;69.00;;;;;;5077773;28;20534;-73
2020/12/08 07:52:16;;;;;;;6.45;4.55;;;14.00;69.00;;;;;;5101839;28;20385;-74
2020/12/08 07:54:42;;;;;;;7.38;5.57;;;14.00;69.00;;;;;;5086296;28;20027;-74
2020/12/08 07:57:08;;;;;;;6.55;5.13;;;14.00;69.00;;;;;;5085170;28;20048;-73
2020/12/08 07:59:34;;;;;;;5.85;4.72;;;13.90;69.00;;;;;;5058139;28;20527;-73
2020/12/08 08:02:01;;;;;;;6.38;5.15;;;14.00;69.00;;;;;;5067246;28;20044;-73
2020/12/08 08:04:26;;;;;;;7.72;5.60;;;13.90;69.00;;;;;;5088636;28;20070;-73
2020/12/08 08:06:52;;;;;;;6.07;4.82;;;13.90;69.00;;;;;;5087912;28;20059;-73
2020/12/08 08:09:18;;;;;;;6.78;5.03;;;13.90;69.00;;;;;;5090637;28;20043;-73
2020/12/08 08:11:44;;;;;;;5.30;4.68;;;13.90;69.00;;;;;;5071654;28;20128;-73
2020/12/08 08:14:09;;;;;;;6.65;4.90;;;13.90;69.00;;;;;;5082083;28;20107;-76
2020/12/08 08:16:35;;;;;;;6.90;5.10;;;13.90;69.00;;;;;;5089585;28;20480;-73
2020/12/08 08:19:04;;;;;;;6.13;4.85;;;14.00;69.00;;;;;;5074763;28;20031;-74
2020/12/08 08:21:30;;;;;;;7.53;5.00;;;14.00;68.90;;;;;;5091506;28;20047;-73
2020/12/08 08:23:59;;;;;;;6.57;5.38;;;14.00;68.90;;;;;;5089543;28;20039;-77
2020/12/08 08:26:26;;;;;;;5.35;4.55;;;14.00;68.90;;;;;;5084785;28;20111;-77
2020/12/08 08:28:52;;;;;;;6.45;4.95;;;14.00;68.90;;;;;;5079645;28;20483;-73
2020/12/08 08:31:17;;;;;;;6.13;4.80;;;14.00;68.90;;;;;;5073783;28;20067;-73
2020/12/08 08:33:43;;;;;;;7.47;5.05;;;14.00;68.80;;;;;;5088210;28;20020;-73
2020/12/08 08:36:09;;;;;;;6.00;4.50;;;14.00;68.80;;;;;;5072607;28;20082;-74
2020/12/08 08:38:34;;;;;;;5.18;4.50;;;14.00;68.80;;;;;;5072282;28;20028;-73
2020/12/08 08:41:00;;;;;;;6.95;4.80;;;14.00;68.80;;;;;;5091823;28;20028;-74
2020/12/08 08:43:26;;;;;;;6.47;4.57;;;14.00;68.80;;;;;;5087336;28;20384;-74
2020/12/08 08:45:53;;;;;;;6.63;5.03;;;14.00;68.70;;;;;;5073110;28;20085;-73
2020/12/08 08:48:19;;;;;;;6.70;4.85;;;14.00;68.70;;;;;;5088789;28;20024;-73
2020/12/08 08:50:46;;;;;;;6.15;4.43;;;14.00;68.70;;;;;;5072429;28;20032;-73
2020/12/08 08:53:12;;;;;;;6.38;5.00;;;14.00;68.70;;;;;;5090381;28;20024;-79
2020/12/08 08:55:38;;;;;;;6.13;4.82;;;14.00;68.80;;;;;;5087931;28;20032;-73
2020/12/08 08:58:04;;;;;;;5.63;4.50;;;14.00;68.80;;;;;;5085569;28;20111;-73
2020/12/08 09:00:30;;;;;;;6.05;4.72;;;14.00;68.80;;;;;;5086463;28;20092;-74
2020/12/08 09:02:58;;;;;;;6.57;4.85;;;14.00;68.80;;;;;;5090647;28;20028;-73
2020/12/08 09:05:24;;;;;;;;;;;14.00;68.80;;;;;;5092509;28;20027;-73
2020/12/08 09:07:50;;;;;;;6.40;4.80;;;14.00;68.80;;;;;;5088709;28;19919;-73
2020/12/08 09:10:15;;;;;;;6.22;4.63;;;14.00;68.80;;;;;;5089645;28;20054;-73
2020/12/08 09:12:41;;;;;;;5.85;4.75;;;14.00;68.80;;;;;;5087989;28;20051;-76
2020/12/08 09:15:08;;;;;;;5.72;4.38;;;14.00;68.80;;;;;;5066744;28;20372;-74
2020/12/08 09:17:33;;;;;;;5.25;4.45;;;14.00;68.80;;;;;;5088863;28;20019;-77
2020/12/08 09:19:59;;;;;;;5.63;4.30;;;14.00;68.80;;;;;;5089140;28;20517;-74
2020/12/08 09:22:25;;;;;;;6.22;4.85;;;14.00;68.80;;;;;;5090700;28;20031;-72
2020/12/08 09:24:50;;;;;;;5.63;4.43;;;14.00;68.80;;;;;;5072104;28;20058;-72
2020/12/08 09:27:16;;;;;;;6.35;4.63;;;14.00;68.80;;;;;;5088493;28;20055;-72
2020/12/08 09:29:43;;;;;;;5.82;4.60;;;14.00;68.80;;;;;;5072498;28;20068;-77
2020/12/08 09:32:08;;;;;;;6.50;5.15;;;14.00;68.70;;;;;;5070257;28;20028;-72
2020/12/08 09:34:34;;;;;;;6.35;4.50;;;14.00;68.70;;;;;;5090216;28;20112;-73
2020/12/08 09:37:00;;;;;;;6.10;4.60;;;14.10;68.70;;;;;;5088258;28;20020;-75
2020/12/08 09:39:26;;;;;;;6.82;4.88;;;14.10;68.60;;;;;;5081771;28;20024;-74
2020/12/08 09:41:52;;;;;;;6.00;4.80;;;14.10;68.60;;;;;;5086742;28;20074;-74
2020/12/08 09:44:18;;;;;;;5.50;4.25;;;14.10;68.60;;;;;;5086710;28;20028;-74
2020/12/08 09:46:44;;;;;;;5.78;4.22;;;14.10;68.60;;;;;;5086206;28;20063;-75
2020/12/08 09:49:11;;;;;;;6.25;4.97;;;14.10;68.50;;;;;;5088773;28;20028;-75
2020/12/08 09:51:36;;;;;;;5.03;4.10;;;14.10;68.50;;;;;;5080525;28;20028;-75
2020/12/08 09:54:03;;;;;;;6.07;4.63;;;14.10;68.50;;;;;;5080861;28;20032;-76
2020/12/08 09:56:29;;;;;;;5.35;4.55;;;14.10;68.50;;;;;;5089046;28;20032;-75
2020/12/08 09:58:55;;;;;;;5.18;4.50;;;14.10;68.50;;;;;;5090313;28;20051;-75
2020/12/08 10:01:33;;;;;;;6.10;4.78;;;14.10;68.60;;;;;;5089796;28;20141;-77
2020/12/08 10:04:00;;;;;;;6.55;4.80;;;14.10;68.50;;;;;;5066238;28;20032;-81
2020/12/08 10:06:26;;;;;;;5.78;4.65;;;14.10;68.50;;;;;;5073836;28;20021;-75
2020/12/08 10:08:54;;;;;;;6.32;4.82;;;14.10;68.50;;;;;;5086404;28;20048;-76
2020/12/08 10:11:23;;;;;;;5.82;4.65;;;14.10;68.40;;;;;;5084892;28;20048;-74
2020/12/08 10:13:49;;;;;;;7.07;5.00;;;14.20;68.40;;;;;;5073946;28;20029;-75
2020/12/08 10:16:23;;;;;;;6.85;4.95;;;14.10;68.40;;;;;;5089561;28;20027;-75
2020/12/08 10:18:49;;;;;;;6.20;4.57;;;14.10;68.40;;;;;;5092089;28;20112;-75
2020/12/08 10:21:22;;;;;;;5.43;4.00;;;14.20;68.40;;;;;;5090855;28;20029;-75
2020/12/08 10:23:48;;;;;;;5.35;4.45;;;14.10;68.40;;;;;;5091247;28;20081;-74
2020/12/08 10:26:13;;;;;;;8.70;6.00;;;14.10;68.40;;;;;;5092705;28;20053;-73
2020/12/08 10:28:39;;;;;;;5.15;3.95;;;14.10;68.50;;;;;;5084348;28;20105;-74
2020/12/08 10:31:05;;;;;;;5.95;4.38;;;14.10;68.50;;;;;;5073723;28;20028;-74
2020/12/08 10:33:30;;;;;;;6.40;4.50;;;14.10;68.40;;;;;;5074198;28;20150;-79
2020/12/08 10:35:56;;;;;;;6.65;5.00;;;14.10;68.40;;;;;;5089604;28;20029;-73
2020/12/08 10:38:24;;;;;;;5.28;4.32;;;14.10;68.40;;;;;;5088683;28;20020;-73
2020/12/08 10:40:49;;;;;;;6.23;4.63;;;14.10;68.40;;;;;;5094223;28;20392;-73
2020/12/08 10:43:15;;;;;;;5.78;4.63;;;14.20;68.30;;;;;;5093749;28;20099;-73
2020/12/08 10:45:41;;;;;;;5.45;4.10;;;14.20;68.30;;;;;;5074597;28;20406;-75
2020/12/08 10:48:06;;;;;;;4.95;4.05;;;14.20;68.20;;;;;;5084935;28;20124;-74
2020/12/08 10:50:32;;;;;;;5.78;4.38;;;14.20;68.20;;;;;;5074188;28;20031;-73
2020/12/08 10:52:58;;;;;;;5.25;4.63;;;14.20;68.20;;;;;;5075416;28;20036;-76
2020/12/08 10:55:23;;;;;;;6.65;4.70;;;14.20;68.20;;;;;;5094639;28;20131;-74
2020/12/08 10:57:51;;;;;;;5.40;4.43;;;14.20;68.20;;;;;;5095124;28;20024;-73
2020/12/08 11:00:16;;;;;;;5.45;4.55;;;14.20;68.10;;;;;;5088613;28;20067;-76
2020/12/08 11:02:42;;;;;;;4.95;4.30;;;14.20;68.10;;;;;;5091882;28;20055;-74
2020/12/08 11:05:08;;;;;;;6.45;4.82;;;14.30;68.10;;;;;;5092744;28;20055;-76
2020/12/08 11:07:38;;;;;;;5.70;4.53;;;14.30;68.00;;;;;;5073481;28;20807;-74
2020/12/08 11:10:04;;;;;;;5.93;4.65;;;14.20;68.00;;;;;;5093030;28;20031;-73
2020/12/08 11:12:32;;;;;;;5.57;4.28;;;14.20;68.00;;;;;;5092967;28;20115;-73
2020/12/08 11:14:58;;;;;;;6.43;4.43;;;14.30;68.00;;;;;;5093044;28;20050;-74
2020/12/08 11:17:24;;;;;;;5.85;4.32;;;14.20;68.00;;;;;;5092710;28;20469;-78
2020/12/08 11:19:49;;;;;;;5.38;4.47;;;14.20;68.00;;;;;;5092165;28;20016;-74
2020/12/08 11:22:17;;;;;;;5.90;4.18;;;14.20;68.00;;;;;;5104821;28;20028;-72
2020/12/08 11:24:43;;;;;;;5.97;4.45;;;14.20;68.00;;;;;;5092956;28;20031;-72
2020/12/08 11:27:16;;;;;;;5.20;4.18;;;14.30;68.00;;;;;;5092396;28;20381;-72
2020/12/08 11:29:43;;;;;;;4.70;3.67;;;14.20;68.00;;;;;;5092828;28;20036;-72
2020/12/08 11:32:08;;;;;;;4.45;3.97;;;14.20;68.00;;;;;;5092039;28;20039;-72
2020/12/08 11:34:34;;;;;;;5.25;4.40;;;14.30;68.00;;;;;;5090774;28;20024;-73
2020/12/08 11:37:00;;;;;;;4.72;4.03;;;14.20;68.00;;;;;;5093854;28;20035;-74
2020/12/08 11:39:26;;;;;;;6.10;4.85;;;14.20;68.00;;;;;;5092180;28;20485;-73
2020/12/08 11:41:51;;;;;;;6.68;4.68;;;14.20;68.00;;;;;;5093218;28;20020;-72
2020/12/08 11:44:17;;;;;;;5.93;4.10;;;14.20;68.00;;;;;;5093117;28;20035;-72
2020/12/08 11:46:47;;;;;;;6.13;4.38;;;14.20;68.00;;;;;;5092552;28;20028;-72
2020/12/08 11:49:12;;;;;;;6.65;4.53;;;14.20;68.00;;;;;;5091079;28;20024;-73
2020/12/08 11:51:38;;;;;;;6.07;4.47;;;14.20;68.00;;;;;;5092559;28;20043;-72
2020/12/08 11:54:03;;;;;;;5.20;4.00;;;14.20;68.10;;;;;;5093267;28;20027;-74
2020/12/08 11:56:29;;;;;;;5.85;4.72;;;14.20;68.10;;;;;;5091319;28;20077;-72
2020/12/08 11:58:56;;;;;;;5.28;3.95;;;14.20;68.10;;;;;;5091868;28;20028;-72
2020/12/08 12:01:23;;;;;;;5.57;4.20;;;14.20;68.10;;;;;;5083050;28;20047;-72
2020/12/08 12:03:48;;;;;;;6.00;4.40;;;14.20;68.10;;;;;;5091718;28;20059;-72
2020/12/08 12:06:14;;;;;;;6.93;4.78;;;14.20;68.10;;;;;;5093336;28;20079;-72
2020/12/08 12:08:40;;;;;;;5.10;4.07;;;14.20;68.10;;;;;;5092500;28;20024;-77
2020/12/08 12:11:07;;;;;;;5.38;4.20;;;14.20;68.10;;;;;;5089610;28;20056;-73
2020/12/08 12:13:32;;;;;;;5.38;4.30;;;14.20;68.10;;;;;;5093686;28;20028;-72
2020/12/08 12:15:58;;;;;;;4.75;3.83;;;14.20;68.10;;;;;;5093447;28;20469;-72
2020/12/08 12:18:23;;;;;;;5.80;4.28;;;14.20;68.10;;;;;;5080876;28;20034;-72
2020/12/08 12:20:49;;;;;;;5.00;4.05;;;14.20;68.10;;;;;;5093803;28;20101;-72
2020/12/08 12:23:20;;;;;;;6.00;3.80;;;14.20;68.10;;;;;;5075736;28;20032;-72
2020/12/08 12:25:46;;;;;;;5.80;3.95;;;14.20;68.10;;;;;;5099736;28;20472;-73
2020/12/08 12:28:12;;;;;;;5.50;3.90;;;14.20;68.00;;;;;;5091986;28;20171;-72
2020/12/08 12:30:38;;;;;;;5.40;4.10;;;14.20;68.10;;;;;;5089400;28;20040;-72
2020/12/08 12:33:03;;;;;;;6.53;4.35;;;14.20;68.10;;;;;;5090272;28;20468;-72
2020/12/08 12:35:29;;;;;;;4.43;3.78;;;14.20;68.00;;;;;;5097124;28;20015;-72
2020/12/08 12:37:55;;;;;;;4.90;4.07;;;14.20;68.00;;;;;;5093007;28;20020;-72
2020/12/08 12:40:21;;;;;;;5.72;4.40;;;14.20;68.00;;;;;;5091975;28;20032;-72
2020/12/08 12:42:46;;;;;;;4.30;3.88;;;14.20;68.00;;;;;;5089901;28;20055;-72
2020/12/08 12:45:12;;;;;;;4.40;3.67;;;14.20;68.00;;;;;;5092392;28;20051;-72
2020/12/08 12:47:37;;;;;;;4.78;3.90;;;14.20;68.10;;;;;;5091606;28;20480;-72
2020/12/08 12:50:05;;;;;;;4.22;3.65;;;14.20;68.10;;;;;;5090157;28;20031;-73
2020/12/08 12:52:30;;;;;;;5.05;4.30;;;14.20;68.10;;;;;;5086929;28;20023;-72